createdAt,value
2022-10-13T00:00:00.309Z,13.2
2022-10-13T00:01:00.333Z,13.2
2022-10-13T00:02:00.376Z,13.2
2022-10-13T00:03:00.643Z,13.3
2022-10-13T00:04:00.283Z,13.3
2022-10-13T00:05:00.324Z,13.3
2022-10-13T00:06:00.313Z,13.2
2022-10-13T00:07:00.379Z,13.2
2022-10-13T00:08:00.286Z,13.2
2022-10-13T00:09:00.374Z,13.2
2022-10-13T00:10:00.316Z,13.2
2022-10-13T00:11:00.286Z,13.2
2022-10-13T00:12:00.295Z,13.2
2022-10-13T00:13:00.299Z,13.2
2022-10-13T00:14:00.299Z,13.1
2022-10-13T00:15:00.443Z,13.1
2022-10-13T00:16:00.403Z,13.2
2022-10-13T00:17:00.361Z,13.2
2022-10-13T00:18:00.319Z,13.2
2022-10-13T00:19:00.320Z,13.2
2022-10-13T00:20:00.301Z,13.2
2022-10-13T00:21:00.430Z,13.2
2022-10-13T00:22:00.408Z,13.1
2022-10-13T00:23:00.313Z,13.1
2022-10-13T00:24:00.315Z,13.1
2022-10-13T00:25:00.305Z,13.1
2022-10-13T00:26:00.317Z,13.1
2022-10-13T00:27:00.442Z,13.1
2022-10-13T00:28:00.299Z,13.1
2022-10-13T00:29:00.368Z,13.1
2022-10-13T00:30:00.306Z,13.1
2022-10-13T00:31:00.355Z,13.1
2022-10-13T00:32:00.309Z,13.1
2022-10-13T00:33:00.464Z,13.1
2022-10-13T00:34:00.349Z,13.2
2022-10-13T00:35:00.309Z,13.2
2022-10-13T00:36:00.339Z,13.2
2022-10-13T00:37:00.505Z,13.2
2022-10-13T00:38:00.371Z,13.2
2022-10-13T00:39:00.479Z,13.2
2022-10-13T00:40:00.299Z,13.2
2022-10-13T00:41:00.302Z,13.2
2022-10-13T00:42:00.294Z,13.2
2022-10-13T00:43:00.284Z,13.2
2022-10-13T00:44:00.328Z,13.2
2022-10-13T00:45:00.457Z,13.2
2022-10-13T00:46:00.332Z,13.2
2022-10-13T00:47:00.295Z,13.2
2022-10-13T00:48:00.302Z,13.2
2022-10-13T00:49:00.313Z,13.2
2022-10-13T00:50:00.311Z,13.2
2022-10-13T00:51:00.545Z,13.2
2022-10-13T00:52:00.535Z,13.2
2022-10-13T00:53:00.301Z,13.2
2022-10-13T00:54:00.352Z,13.2
2022-10-13T00:55:00.396Z,13.2
2022-10-13T00:56:00.333Z,13.2
2022-10-13T00:57:00.513Z,13.2
2022-10-13T00:58:04.960Z,13.2
2022-10-13T00:59:00.309Z,13.3
2022-10-13T01:00:00.353Z,13.3
2022-10-13T01:01:00.373Z,13.3
2022-10-13T01:02:00.296Z,13.3
2022-10-13T01:03:00.419Z,13.3
2022-10-13T01:04:00.285Z,13.3
2022-10-13T01:05:00.315Z,13.3
2022-10-13T01:06:00.336Z,13.3
2022-10-13T01:07:00.474Z,13.3
2022-10-13T01:08:00.302Z,13.3
2022-10-13T01:09:00.517Z,13.3
2022-10-13T01:10:00.312Z,13.3
2022-10-13T01:11:00.314Z,13.3
2022-10-13T01:12:00.296Z,13.3
2022-10-13T01:13:00.294Z,13.3
2022-10-13T01:14:00.294Z,13.3
2022-10-13T01:15:00.441Z,13.3
2022-10-13T01:16:00.309Z,13.3
2022-10-13T01:17:00.323Z,13.3
2022-10-13T01:18:00.375Z,13.3
2022-10-13T01:19:00.315Z,13.3
2022-10-13T01:20:00.313Z,13.3
2022-10-13T01:21:00.579Z,13.3
2022-10-13T01:22:00.336Z,13.3
2022-10-13T01:23:00.341Z,13.3
2022-10-13T01:24:00.289Z,13.3
2022-10-13T01:25:00.297Z,13.2
2022-10-13T01:26:00.311Z,13.2
2022-10-13T01:27:00.863Z,13.2
2022-10-13T01:28:00.310Z,13.2
2022-10-13T01:29:00.311Z,13.3
2022-10-13T01:30:00.285Z,13.2
2022-10-13T01:31:00.297Z,13.2
2022-10-13T01:32:00.298Z,13.2
2022-10-13T01:33:00.430Z,13.2
2022-10-13T01:34:00.327Z,13.2
2022-10-13T01:35:00.333Z,13.2
2022-10-13T01:36:00.378Z,13.2
2022-10-13T01:37:00.369Z,13.1
2022-10-13T01:38:00.458Z,13.2
2022-10-13T01:39:00.447Z,13.2
2022-10-13T01:40:00.287Z,13.2
2022-10-13T01:41:00.374Z,13.1
2022-10-13T01:42:00.331Z,13.1
2022-10-13T01:43:00.282Z,13.1
2022-10-13T01:44:00.320Z,13.1
2022-10-13T01:45:00.457Z,13.1
2022-10-13T01:46:00.322Z,13.2
2022-10-13T01:47:00.370Z,13.1
2022-10-13T01:48:00.288Z,13.1
2022-10-13T01:49:00.312Z,13.1
2022-10-13T01:50:00.326Z,13.1
2022-10-13T01:51:00.444Z,13.2
2022-10-13T01:52:00.319Z,13.2
2022-10-13T01:53:00.426Z,13.2
2022-10-13T01:54:00.307Z,13.2
2022-10-13T01:55:00.300Z,13.3
2022-10-13T01:56:00.296Z,13.3
2022-10-13T01:57:00.413Z,13.3
2022-10-13T01:58:00.344Z,13.2
2022-10-13T01:59:00.312Z,13.2
2022-10-13T02:00:00.335Z,13.2
2022-10-13T02:01:00.448Z,13.2
2022-10-13T02:02:00.333Z,13.2
2022-10-13T02:03:00.519Z,13.2
2022-10-13T02:04:00.307Z,13.2
2022-10-13T02:05:00.346Z,13.2
2022-10-13T02:06:00.317Z,13.2
2022-10-13T02:07:00.291Z,13.2
2022-10-13T02:08:00.891Z,13.2
2022-10-13T02:09:00.517Z,13.1
2022-10-13T02:10:00.301Z,13.1
2022-10-13T02:11:00.325Z,13.2
2022-10-13T02:12:00.286Z,13.1
2022-10-13T02:13:00.344Z,13.2
2022-10-13T02:14:00.351Z,13.3
2022-10-13T02:15:00.499Z,13.3
2022-10-13T02:16:00.381Z,13.2
2022-10-13T02:17:00.290Z,13.2
2022-10-13T02:18:00.285Z,13.2
2022-10-13T02:19:00.339Z,13.2
2022-10-13T02:20:00.276Z,13.1
2022-10-13T02:21:00.473Z,13.0
2022-10-13T02:22:00.304Z,13.0
2022-10-13T02:23:00.280Z,13.0
2022-10-13T02:24:00.445Z,13.0
2022-10-13T02:25:00.311Z,13.0
2022-10-13T02:26:00.298Z,12.9
2022-10-13T02:27:00.509Z,12.9
2022-10-13T02:28:00.316Z,12.9
2022-10-13T02:29:00.319Z,12.9
2022-10-13T02:30:00.341Z,12.9
2022-10-13T02:31:00.343Z,12.9
2022-10-13T02:32:00.394Z,12.9
2022-10-13T02:33:00.483Z,12.9
2022-10-13T02:34:00.336Z,13.0
2022-10-13T02:35:00.360Z,13.0
2022-10-13T02:36:00.411Z,13.0
2022-10-13T02:37:00.314Z,13.0
2022-10-13T02:38:00.299Z,13.1
2022-10-13T02:39:00.425Z,13.1
2022-10-13T02:40:00.391Z,13.1
2022-10-13T02:41:00.308Z,13.0
2022-10-13T02:42:00.302Z,13.0
2022-10-13T02:43:00.301Z,13.0
2022-10-13T02:44:00.363Z,13.1
2022-10-13T02:45:00.538Z,13.1
2022-10-13T02:46:00.291Z,13.1
2022-10-13T02:47:00.339Z,13.0
2022-10-13T02:48:00.366Z,13.0
2022-10-13T02:49:00.327Z,13.0
2022-10-13T02:50:00.305Z,13.0
2022-10-13T02:51:00.523Z,13.0
2022-10-13T02:52:00.297Z,12.9
2022-10-13T02:53:00.316Z,12.9
2022-10-13T02:54:00.305Z,12.9
2022-10-13T02:55:00.594Z,12.8
2022-10-13T02:56:00.286Z,12.8
2022-10-13T02:57:00.430Z,12.8
2022-10-13T02:58:00.312Z,12.8
2022-10-13T02:59:00.300Z,12.7
2022-10-13T03:00:00.305Z,12.7
2022-10-13T03:01:00.384Z,12.7
2022-10-13T03:02:00.312Z,12.7
2022-10-13T03:03:00.432Z,12.7
2022-10-13T03:04:00.311Z,12.7
2022-10-13T03:05:00.295Z,12.7
2022-10-13T03:06:00.359Z,12.7
2022-10-13T03:07:00.284Z,12.7
2022-10-13T03:08:00.307Z,12.7
2022-10-13T03:09:00.501Z,12.7
2022-10-13T03:10:00.385Z,12.7
2022-10-13T03:11:00.306Z,12.7
2022-10-13T03:12:00.293Z,12.7
2022-10-13T03:13:00.281Z,12.7
2022-10-13T03:14:00.295Z,12.7
2022-10-13T03:15:00.432Z,12.7
2022-10-13T03:16:00.284Z,12.8
2022-10-13T03:17:00.281Z,12.8
2022-10-13T03:18:00.281Z,12.8
2022-10-13T03:19:00.289Z,12.8
2022-10-13T03:20:00.327Z,12.9
2022-10-13T03:21:00.456Z,12.9
2022-10-13T03:22:00.377Z,12.9
2022-10-13T03:23:00.345Z,12.9
2022-10-13T03:24:00.382Z,12.9
2022-10-13T03:25:00.412Z,12.9
2022-10-13T03:26:00.411Z,12.9
2022-10-13T03:27:00.480Z,12.9
2022-10-13T03:28:00.463Z,12.9
2022-10-13T03:29:00.308Z,13.0
2022-10-13T03:30:00.356Z,13.0
2022-10-13T03:31:00.383Z,13.0
2022-10-13T03:32:00.277Z,13.1
2022-10-13T03:33:00.487Z,13.1
2022-10-13T03:34:00.325Z,13.2
2022-10-13T03:35:00.354Z,13.2
2022-10-13T03:36:00.304Z,13.2
2022-10-13T03:37:00.295Z,13.2
2022-10-13T03:38:00.320Z,13.2
2022-10-13T03:39:00.442Z,13.3
2022-10-13T03:40:00.540Z,13.3
2022-10-13T03:41:00.300Z,13.3
2022-10-13T03:42:00.287Z,13.3
2022-10-13T03:43:00.286Z,13.3
2022-10-13T03:44:00.356Z,13.4
2022-10-13T03:45:00.488Z,13.5
2022-10-13T03:46:00.289Z,13.5
2022-10-13T03:47:00.283Z,13.6
2022-10-13T03:48:00.396Z,13.6
2022-10-13T03:49:00.373Z,13.6
2022-10-13T03:50:00.279Z,13.7
2022-10-13T03:51:00.428Z,13.7
2022-10-13T03:52:00.275Z,13.7
2022-10-13T03:53:00.262Z,13.7
2022-10-13T03:54:00.263Z,13.8
2022-10-13T03:55:00.291Z,13.8
2022-10-13T03:56:00.423Z,13.8
2022-10-13T03:57:00.401Z,13.8
2022-10-13T03:58:00.294Z,13.8
2022-10-13T03:59:00.261Z,13.9
2022-10-13T04:00:00.268Z,13.9
2022-10-13T04:01:00.268Z,14.0
2022-10-13T04:02:00.323Z,14.0
2022-10-13T04:03:00.403Z,14.0
2022-10-13T04:04:00.353Z,14.0
2022-10-13T04:05:00.265Z,14.0
2022-10-13T04:06:00.319Z,14.0
2022-10-13T04:07:00.272Z,14.1
2022-10-13T04:08:00.427Z,14.1
2022-10-13T04:09:00.803Z,14.1
2022-10-13T04:10:00.263Z,14.2
2022-10-13T04:11:00.269Z,14.2
2022-10-13T04:12:00.411Z,14.3
2022-10-13T04:13:00.428Z,14.4
2022-10-13T04:14:00.276Z,14.5
2022-10-13T04:15:00.531Z,14.5
2022-10-13T04:16:00.263Z,14.6
2022-10-13T04:17:00.267Z,14.7
2022-10-13T04:18:00.261Z,14.7
2022-10-13T04:19:00.266Z,14.8
2022-10-13T04:20:00.248Z,14.8
2022-10-13T04:21:00.392Z,14.8
2022-10-13T04:22:00.266Z,14.9
2022-10-13T04:23:00.276Z,14.9
2022-10-13T04:24:00.259Z,15.0
2022-10-13T04:25:00.273Z,15.1
2022-10-13T04:26:00.272Z,15.2
2022-10-13T04:27:00.408Z,15.2
2022-10-13T04:28:00.436Z,15.3
2022-10-13T04:29:00.319Z,15.3
2022-10-13T04:30:00.265Z,15.3
2022-10-13T04:31:00.285Z,15.4
2022-10-13T04:32:00.261Z,15.4
2022-10-13T04:33:00.329Z,15.5
2022-10-13T04:34:00.327Z,15.5
2022-10-13T04:35:00.288Z,15.5
2022-10-13T04:36:00.295Z,15.6
2022-10-13T04:37:00.309Z,15.6
2022-10-13T04:38:00.307Z,15.6
2022-10-13T04:39:00.536Z,15.6
2022-10-13T04:40:00.322Z,15.7
2022-10-13T04:41:00.334Z,15.7
2022-10-13T04:42:00.256Z,15.8
2022-10-13T04:43:00.282Z,15.9
2022-10-13T04:44:00.388Z,15.9
2022-10-13T04:45:00.482Z,16.0
2022-10-13T04:46:00.269Z,16.1
2022-10-13T04:47:00.274Z,16.2
2022-10-13T04:48:00.252Z,16.3
2022-10-13T04:49:00.270Z,16.3
2022-10-13T04:50:00.314Z,16.4
2022-10-13T04:51:00.543Z,16.5
2022-10-13T04:52:00.257Z,16.6
2022-10-13T04:53:00.246Z,16.6
2022-10-13T04:54:00.275Z,16.7
2022-10-13T04:55:00.266Z,16.8
2022-10-13T04:56:00.267Z,17.0
2022-10-13T04:57:00.383Z,17.3
2022-10-13T04:58:00.250Z,17.8
2022-10-13T04:59:00.249Z,18.3
2022-10-13T05:00:00.348Z,18.6
2022-10-13T05:01:00.355Z,18.8
2022-10-13T05:02:00.269Z,18.9
2022-10-13T05:03:00.419Z,19.0
2022-10-13T05:04:00.246Z,19.2
2022-10-13T05:05:00.295Z,19.4
2022-10-13T05:06:00.251Z,19.5
2022-10-13T05:07:17.166Z,19.7
2022-10-13T05:08:00.251Z,19.8
2022-10-13T05:09:00.392Z,20.1
2022-10-13T05:10:00.342Z,20.3
2022-10-13T05:11:00.275Z,20.5
2022-10-13T05:12:00.271Z,20.7
2022-10-13T05:13:00.243Z,21.0
2022-10-13T05:14:00.248Z,21.7
2022-10-13T05:15:00.590Z,22.6
2022-10-13T05:16:00.374Z,22.6
2022-10-13T05:17:00.285Z,22.6
2022-10-13T05:18:00.350Z,22.7
2022-10-13T05:19:00.258Z,23.1
2022-10-13T05:20:00.335Z,23.3
2022-10-13T05:21:00.432Z,23.0
2022-10-13T05:22:00.254Z,22.7
2022-10-13T05:23:00.273Z,22.5
2022-10-13T05:24:00.350Z,22.2
2022-10-13T05:25:00.280Z,21.9
2022-10-13T05:26:00.272Z,21.8
2022-10-13T05:27:00.474Z,21.8
2022-10-13T05:28:00.308Z,21.6
2022-10-13T05:29:00.275Z,21.5
2022-10-13T05:30:00.310Z,21.4
2022-10-13T05:31:00.559Z,21.4
2022-10-13T05:32:00.311Z,21.4
2022-10-13T05:33:00.418Z,21.3
2022-10-13T05:34:00.284Z,21.2
2022-10-13T05:35:00.315Z,21.1
2022-10-13T05:36:00.305Z,21.0
2022-10-13T05:37:00.285Z,21.0
2022-10-13T05:38:00.284Z,21.0
2022-10-13T05:39:00.430Z,21.2
2022-10-13T05:40:00.303Z,21.4
2022-10-13T05:41:00.313Z,21.5
2022-10-13T05:42:00.333Z,21.7
2022-10-13T05:43:00.356Z,22.1
2022-10-13T05:44:00.366Z,22.5
2022-10-13T05:45:00.437Z,23.0
2022-10-13T05:46:00.516Z,23.7
2022-10-13T05:47:04.955Z,24.6
2022-10-13T05:48:00.298Z,25.4
2022-10-13T05:49:00.343Z,26.8
2022-10-13T05:50:00.316Z,27.6
2022-10-13T05:51:00.541Z,27.6
2022-10-13T05:52:00.302Z,26.4
2022-10-13T05:53:00.312Z,25.8
2022-10-13T05:54:00.342Z,25.4
2022-10-13T05:55:00.306Z,24.9
2022-10-13T05:56:00.289Z,25.0
2022-10-13T05:57:00.433Z,25.8
2022-10-13T05:58:00.292Z,26.9
2022-10-13T05:59:00.326Z,27.5
2022-10-13T06:00:00.350Z,28.0
2022-10-13T06:01:00.452Z,28.8
2022-10-13T06:02:00.423Z,29.5
2022-10-13T06:03:00.475Z,30.4
2022-10-13T06:04:00.287Z,31.3
2022-10-13T06:05:00.338Z,31.6
2022-10-13T06:06:00.321Z,32.1
2022-10-13T06:07:00.298Z,32.5
2022-10-13T06:08:00.310Z,32.5
2022-10-13T06:09:00.525Z,32.8
2022-10-13T06:10:00.287Z,33.0
2022-10-13T06:11:00.303Z,32.7
2022-10-13T06:12:00.303Z,32.2
2022-10-13T06:13:00.309Z,31.6
2022-10-13T06:14:00.329Z,30.8
2022-10-13T06:15:00.473Z,30.2
2022-10-13T06:16:00.473Z,29.7
2022-10-13T06:17:00.320Z,29.0
2022-10-13T06:18:00.307Z,28.3
2022-10-13T06:19:00.308Z,28.1
2022-10-13T06:20:00.295Z,28.3
2022-10-13T06:21:00.453Z,28.8
2022-10-13T06:22:03.647Z,29.4
2022-10-13T06:23:00.361Z,30.1
2022-10-13T06:24:00.373Z,30.4
2022-10-13T06:25:00.317Z,30.6
2022-10-13T06:26:00.377Z,30.7
2022-10-13T06:27:00.650Z,30.3
2022-10-13T06:28:00.283Z,29.7
2022-10-13T06:29:00.382Z,29.2
2022-10-13T06:30:00.286Z,28.5
2022-10-13T06:31:00.417Z,28.3
2022-10-13T06:32:00.306Z,28.0
2022-10-13T06:33:00.465Z,27.3
2022-10-13T06:34:00.263Z,27.1
2022-10-13T06:35:00.288Z,26.6
2022-10-13T06:36:00.275Z,25.9
2022-10-13T06:37:00.291Z,25.2
2022-10-13T06:38:00.293Z,24.6
2022-10-13T06:39:00.476Z,24.3
2022-10-13T06:40:00.270Z,24.6
2022-10-13T06:41:00.250Z,24.8
2022-10-13T06:42:00.345Z,24.9
2022-10-13T06:43:00.306Z,24.4
2022-10-13T06:44:00.301Z,24.4
2022-10-13T06:45:00.389Z,24.2
2022-10-13T06:46:00.282Z,23.9
2022-10-13T06:47:00.405Z,23.7
2022-10-13T06:48:00.356Z,23.5
2022-10-13T06:49:00.303Z,23.7
2022-10-13T06:50:00.275Z,24.1
2022-10-13T06:51:00.539Z,24.7
2022-10-13T06:52:00.245Z,25.1
2022-10-13T06:53:00.294Z,25.8
2022-10-13T06:54:00.336Z,26.5
2022-10-13T06:55:00.305Z,27.5
2022-10-13T06:56:00.272Z,28.2
2022-10-13T06:57:00.474Z,28.6
2022-10-13T06:58:00.257Z,29.7
2022-10-13T06:59:00.245Z,30.5
2022-10-13T07:00:00.302Z,31.0
2022-10-13T07:01:00.431Z,31.1
2022-10-13T07:02:00.284Z,31.3
2022-10-13T07:03:00.431Z,31.4
2022-10-13T07:04:00.274Z,31.6
2022-10-13T07:05:00.312Z,31.7
2022-10-13T07:06:00.357Z,31.6
2022-10-13T07:07:00.297Z,31.6
2022-10-13T07:08:00.265Z,30.4
2022-10-13T07:09:00.505Z,31.0
2022-10-13T07:10:00.299Z,32.3
2022-10-13T07:11:00.295Z,32.5
2022-10-13T07:12:00.308Z,33.6
2022-10-13T07:13:00.358Z,34.0
2022-10-13T07:15:00.414Z,34.5
2022-10-13T07:16:00.297Z,34.9
2022-10-13T07:17:00.294Z,35.2
2022-10-13T07:18:00.399Z,35.2
2022-10-13T07:19:00.331Z,34.7
2022-10-13T07:20:03.732Z,34.6
2022-10-13T07:21:00.497Z,34.8
2022-10-13T07:22:00.304Z,35.0
2022-10-13T07:23:00.299Z,34.3
2022-10-13T07:24:00.621Z,33.5
2022-10-13T07:25:00.304Z,32.7
2022-10-13T07:26:00.349Z,32.4
2022-10-13T07:27:05.282Z,32.5
2022-10-13T07:28:00.303Z,31.8
2022-10-13T07:29:00.438Z,31.2
2022-10-13T07:30:00.301Z,31.4
2022-10-13T07:31:00.317Z,32.1
2022-10-13T07:32:00.300Z,32.3
2022-10-13T07:33:00.518Z,32.8
2022-10-13T07:34:00.291Z,33.6
2022-10-13T07:35:00.318Z,34.3
2022-10-13T07:36:00.428Z,34.9
2022-10-13T07:37:00.312Z,35.8
2022-10-13T07:38:00.308Z,36.5
2022-10-13T07:39:00.485Z,36.9
2022-10-13T07:40:00.294Z,37.4
2022-10-13T07:41:00.296Z,37.6
2022-10-13T07:42:00.300Z,37.2
2022-10-13T07:43:00.392Z,36.7
2022-10-13T07:44:00.322Z,35.8
2022-10-13T07:45:00.452Z,34.9
2022-10-13T07:46:00.370Z,34.0
2022-10-13T07:47:00.380Z,33.5
2022-10-13T07:48:00.457Z,34.0
2022-10-13T07:49:00.294Z,34.1
2022-10-13T07:50:00.323Z,33.8
2022-10-13T07:51:00.521Z,33.2
2022-10-13T07:52:00.300Z,32.7
2022-10-13T07:53:00.291Z,32.6
2022-10-13T07:54:00.310Z,32.2
2022-10-13T07:55:00.297Z,31.6
2022-10-13T07:56:00.332Z,31.3
2022-10-13T07:57:00.449Z,31.0
2022-10-13T07:58:00.327Z,31.2
2022-10-13T07:59:00.291Z,31.4
2022-10-13T08:00:00.315Z,30.9
2022-10-13T08:01:00.378Z,31.4
2022-10-13T08:02:00.414Z,31.2
2022-10-13T08:03:00.431Z,31.4
2022-10-13T08:04:00.332Z,31.9
2022-10-13T08:05:00.335Z,31.8
2022-10-13T08:06:00.308Z,32.0
2022-10-13T08:07:00.299Z,32.5
2022-10-13T08:08:00.321Z,33.2
2022-10-13T08:09:00.469Z,33.8
2022-10-13T08:10:00.303Z,34.0
2022-10-13T08:11:00.378Z,34.0
2022-10-13T08:12:00.768Z,33.6
2022-10-13T08:13:00.290Z,33.0
2022-10-13T08:14:00.311Z,32.4
2022-10-13T08:15:03.460Z,32.3
2022-10-13T08:16:00.311Z,32.1
2022-10-13T08:17:00.321Z,32.0
2022-10-13T08:18:00.388Z,31.9
2022-10-13T08:19:00.299Z,31.7
2022-10-13T08:20:00.329Z,31.2
2022-10-13T08:21:23.898Z,30.7
2022-10-13T08:22:00.606Z,30.4
2022-10-13T08:23:00.309Z,30.1
2022-10-13T08:24:00.391Z,30.0
2022-10-13T08:25:00.348Z,29.9
2022-10-13T08:26:00.297Z,30.2
2022-10-13T08:27:00.554Z,30.8
2022-10-13T08:28:00.700Z,31.6
2022-10-13T08:29:20.747Z,32.2
2022-10-13T08:30:00.371Z,32.4
2022-10-13T08:31:00.463Z,33.0
2022-10-13T08:32:00.348Z,33.4
2022-10-13T08:33:00.454Z,33.4
2022-10-13T08:34:00.282Z,34.6
2022-10-13T08:35:00.307Z,34.7
2022-10-13T08:36:00.344Z,34.2
2022-10-13T08:37:00.291Z,33.6
2022-10-13T08:38:00.330Z,33.1
2022-10-13T08:39:00.483Z,33.1
2022-10-13T08:40:00.308Z,32.5
2022-10-13T08:41:00.292Z,31.3
2022-10-13T08:42:00.342Z,30.6
2022-10-13T08:43:00.631Z,29.6
2022-10-13T08:44:39.578Z,29.1
2022-10-13T08:46:00.513Z,29.4
2022-10-13T08:47:00.311Z,29.6
2022-10-13T08:48:00.490Z,29.7
2022-10-13T08:49:00.328Z,29.9
2022-10-13T08:50:01.073Z,30.0
2022-10-13T08:51:00.421Z,30.1
2022-10-13T08:52:00.549Z,30.2
2022-10-13T08:53:00.327Z,29.9
2022-10-13T08:54:00.311Z,29.5
2022-10-13T08:55:00.311Z,29.3
2022-10-13T08:56:00.285Z,29.1
2022-10-13T08:58:00.553Z,28.8
2022-10-13T08:59:00.303Z,29.1
2022-10-13T09:00:00.345Z,29.3
2022-10-13T09:01:00.286Z,29.5
2022-10-13T09:02:00.375Z,29.8
2022-10-13T09:03:00.350Z,30.3
2022-10-13T09:04:00.409Z,30.4
2022-10-13T09:07:00.301Z,30.2
2022-10-13T09:08:00.353Z,29.7
2022-10-13T09:09:00.385Z,29.2
2022-10-13T09:10:00.441Z,28.9
2022-10-13T09:11:00.312Z,28.8
2022-10-13T09:12:00.305Z,28.7
2022-10-13T09:13:00.298Z,28.8
2022-10-13T09:14:00.341Z,28.5
2022-10-13T09:15:00.342Z,28.2
2022-10-13T09:16:00.507Z,28.5
2022-10-13T09:17:00.302Z,28.7
2022-10-13T09:18:00.389Z,28.9
2022-10-13T09:19:00.297Z,28.9
2022-10-13T09:20:00.281Z,28.7
2022-10-13T09:21:00.314Z,28.6
2022-10-13T09:22:00.448Z,28.5
2022-10-13T09:23:00.294Z,28.4
2022-10-13T09:24:00.296Z,27.9
2022-10-13T09:25:00.283Z,27.5
2022-10-13T09:26:00.283Z,27.6
2022-10-13T09:27:00.350Z,28.2
2022-10-13T09:28:00.509Z,28.1
2022-10-13T09:29:00.414Z,27.9
2022-10-13T09:30:00.299Z,27.3
2022-10-13T09:31:00.285Z,26.9
2022-10-13T09:32:00.312Z,26.8
2022-10-13T09:33:00.464Z,26.8
2022-10-13T09:34:00.431Z,26.6
2022-10-13T09:35:00.301Z,26.6
2022-10-13T09:36:00.382Z,26.6
2022-10-13T09:37:00.312Z,26.5
2022-10-13T09:38:00.310Z,26.6
2022-10-13T09:39:00.315Z,26.7
2022-10-13T09:40:00.554Z,26.7
2022-10-13T09:41:00.282Z,26.6
2022-10-13T09:42:00.285Z,26.9
2022-10-13T09:43:00.302Z,27.8
2022-10-13T09:44:00.315Z,28.3
2022-10-13T09:45:00.318Z,29.4
2022-10-13T09:46:00.430Z,30.9
2022-10-13T09:47:00.283Z,33.4
2022-10-13T09:48:00.429Z,35.3
2022-10-13T09:49:00.284Z,36.3
2022-10-13T09:50:04.851Z,36.5
2022-10-13T09:51:00.303Z,35.8
2022-10-13T09:52:00.587Z,34.9
2022-10-13T09:53:00.297Z,34.1
2022-10-13T09:54:00.297Z,32.8
2022-10-13T09:55:00.308Z,31.1
2022-10-13T09:56:00.298Z,30.1
2022-10-13T09:57:00.328Z,29.4
2022-10-13T09:58:00.424Z,28.8
2022-10-13T10:01:00.302Z,27.5
2022-10-13T10:02:00.316Z,27.3
2022-10-13T10:03:00.413Z,27.0
2022-10-13T10:04:00.658Z,26.9
2022-10-13T10:05:00.329Z,26.7
2022-10-13T10:06:00.403Z,26.6
2022-10-13T10:07:00.368Z,26.5
2022-10-13T10:08:00.306Z,26.4
2022-10-13T10:09:04.702Z,26.7
2022-10-13T10:10:00.560Z,27.1
2022-10-13T10:11:00.288Z,27.5
2022-10-13T10:12:00.314Z,27.2
2022-10-13T10:13:00.313Z,27.3
2022-10-13T10:14:00.299Z,28.0
2022-10-13T10:15:00.284Z,28.3
2022-10-13T10:16:00.453Z,28.8
2022-10-13T10:17:00.350Z,29.3
2022-10-13T10:18:00.377Z,29.3
2022-10-13T10:19:00.318Z,29.1
2022-10-13T10:20:00.311Z,28.5
2022-10-13T10:21:00.313Z,28.9
2022-10-13T10:22:00.463Z,28.8
2022-10-13T10:23:00.294Z,28.0
2022-10-13T10:24:00.313Z,27.3
2022-10-13T10:25:00.304Z,26.8
2022-10-13T10:26:00.318Z,26.4
2022-10-13T10:27:00.283Z,26.1
2022-10-13T10:28:00.437Z,26.1
2022-10-13T10:29:00.356Z,26.2
2022-10-13T10:30:00.331Z,26.3
2022-10-13T10:31:00.303Z,26.2
2022-10-13T10:32:00.301Z,26.3
2022-10-13T10:33:00.420Z,26.4
2022-10-13T10:34:00.596Z,26.4
2022-10-13T10:35:00.307Z,26.3
2022-10-13T10:36:00.305Z,26.2
2022-10-13T10:37:00.282Z,26.2
2022-10-13T10:38:00.313Z,26.1
2022-10-13T10:39:00.371Z,26.0
2022-10-13T10:40:00.977Z,26.0
2022-10-13T10:41:00.339Z,25.9
2022-10-13T10:42:00.296Z,25.9
2022-10-13T10:43:00.291Z,25.9
2022-10-13T10:44:00.380Z,25.7
2022-10-13T10:45:00.330Z,25.5
2022-10-13T10:46:00.454Z,25.4
2022-10-13T10:47:00.311Z,25.3
2022-10-13T10:48:00.429Z,25.1
2022-10-13T10:49:00.294Z,24.9
2022-10-13T10:50:00.358Z,24.7
2022-10-13T10:51:00.280Z,24.6
2022-10-13T10:52:00.492Z,24.5
2022-10-13T10:53:00.303Z,24.2
2022-10-13T10:54:00.299Z,24.1
2022-10-13T10:55:00.293Z,24.1
2022-10-13T10:56:00.293Z,23.9
2022-10-13T10:57:00.307Z,23.8
2022-10-13T10:58:00.421Z,23.8
2022-10-13T10:59:00.308Z,23.8
2022-10-13T11:00:00.303Z,23.8
2022-10-13T11:01:00.308Z,23.8
2022-10-13T11:02:00.281Z,23.8
2022-10-13T11:03:00.498Z,23.7
2022-10-13T11:04:00.502Z,23.7
2022-10-13T11:05:05.211Z,23.7
2022-10-13T11:06:00.312Z,23.6
2022-10-13T11:07:00.292Z,23.5
2022-10-13T11:08:00.296Z,23.4
2022-10-13T11:09:00.292Z,23.3
2022-10-13T11:10:00.451Z,23.2
2022-10-13T11:11:00.276Z,23.0
2022-10-13T11:12:00.292Z,23.0
2022-10-13T11:13:00.333Z,23.1
2022-10-13T11:14:00.370Z,23.1
2022-10-13T11:15:00.308Z,23.2
2022-10-13T11:16:00.546Z,23.1
2022-10-13T11:17:00.364Z,23.1
2022-10-13T11:18:00.414Z,23.1
2022-10-13T11:19:00.299Z,23.2
2022-10-13T11:20:00.283Z,23.3
2022-10-13T11:21:00.288Z,23.4
2022-10-13T11:22:00.580Z,23.4
2022-10-13T11:23:00.318Z,23.5
2022-10-13T11:24:02.249Z,23.6
2022-10-13T11:25:00.302Z,23.8
2022-10-13T11:26:00.297Z,23.9
2022-10-13T11:27:00.294Z,23.9
2022-10-13T11:28:00.522Z,24.0
2022-10-13T11:29:00.292Z,24.0
2022-10-13T11:30:00.353Z,23.8
2022-10-13T11:31:00.284Z,23.8
2022-10-13T11:32:00.301Z,23.8
2022-10-13T11:33:00.462Z,23.7
2022-10-13T11:34:00.588Z,23.6
2022-10-13T11:35:00.519Z,23.4
2022-10-13T11:36:00.299Z,23.2
2022-10-13T11:37:00.394Z,23.1
2022-10-13T11:38:07.426Z,23.0
2022-10-13T11:39:00.305Z,23.0
2022-10-13T11:40:00.443Z,22.9
2022-10-13T11:41:00.294Z,22.9
2022-10-13T11:42:00.295Z,22.9
2022-10-13T11:43:02.690Z,22.9
2022-10-13T11:44:00.314Z,22.9
2022-10-13T11:45:00.286Z,22.9
2022-10-13T11:46:00.449Z,22.9
2022-10-13T11:47:00.344Z,22.8
2022-10-13T11:48:00.618Z,22.8
2022-10-13T11:49:00.286Z,22.8
2022-10-13T11:50:00.274Z,22.9
2022-10-13T11:51:00.285Z,22.8
2022-10-13T11:52:00.491Z,22.8
2022-10-13T11:53:00.271Z,22.8
2022-10-13T11:54:00.355Z,22.9
2022-10-13T11:55:00.334Z,23.1
2022-10-13T11:56:00.275Z,23.1
2022-10-13T11:57:00.286Z,23.2
2022-10-13T11:58:00.457Z,23.3
2022-10-13T11:59:00.314Z,23.4
2022-10-13T12:00:00.299Z,23.5
2022-10-13T12:01:00.352Z,23.5
2022-10-13T12:02:00.294Z,23.5
2022-10-13T12:03:00.485Z,23.5
2022-10-13T12:04:00.385Z,23.6
2022-10-13T12:05:00.308Z,23.6
2022-10-13T12:06:00.289Z,23.6
2022-10-13T12:07:00.312Z,23.6
2022-10-13T12:08:00.471Z,23.7
2022-10-13T12:09:00.303Z,23.7
2022-10-13T12:10:00.614Z,23.6
2022-10-13T12:11:00.301Z,23.4
2022-10-13T12:12:00.304Z,23.3
2022-10-13T12:13:00.295Z,23.2
2022-10-13T12:14:00.315Z,23.1
2022-10-13T12:15:04.240Z,23.0
2022-10-13T12:16:00.439Z,23.0
2022-10-13T12:17:00.326Z,22.8
2022-10-13T12:18:00.623Z,22.7
2022-10-13T12:19:00.314Z,22.5
2022-10-13T12:20:00.364Z,22.4
2022-10-13T12:21:00.378Z,22.3
2022-10-13T12:22:00.518Z,22.3
2022-10-13T12:23:00.377Z,22.2
2022-10-13T12:24:00.286Z,22.2
2022-10-13T12:25:00.296Z,22.1
2022-10-13T12:26:00.339Z,22.0
2022-10-13T12:27:00.305Z,21.9
2022-10-13T12:28:00.422Z,21.7
2022-10-13T12:29:00.413Z,21.7
2022-10-13T12:30:00.306Z,21.8
2022-10-13T12:31:00.311Z,21.9
2022-10-13T12:32:00.309Z,22.0
2022-10-13T12:33:00.453Z,22.0
2022-10-13T12:34:00.428Z,22.1
2022-10-13T12:35:00.304Z,22.2
2022-10-13T12:36:00.303Z,22.3
2022-10-13T12:37:00.305Z,22.2
2022-10-13T12:38:00.334Z,22.1
2022-10-13T12:39:00.307Z,22.0
2022-10-13T12:40:00.688Z,22.1
2022-10-13T12:41:00.310Z,21.9
2022-10-13T12:42:00.320Z,21.8
2022-10-13T12:43:00.306Z,21.7
2022-10-13T12:44:03.889Z,21.7
2022-10-13T12:45:00.329Z,21.7
2022-10-13T12:46:00.456Z,21.7
2022-10-13T12:47:00.302Z,21.7
2022-10-13T12:48:00.566Z,21.6
2022-10-13T12:49:00.314Z,21.6
2022-10-13T12:50:00.376Z,21.7
2022-10-13T12:51:00.299Z,21.8
2022-10-13T12:52:00.465Z,21.9
2022-10-13T12:53:00.299Z,21.8
2022-10-13T12:54:00.335Z,21.7
2022-10-13T12:55:00.392Z,21.7
2022-10-13T12:56:00.321Z,21.7
2022-10-13T12:57:00.331Z,21.8
2022-10-13T12:58:00.636Z,21.9
2022-10-13T12:59:00.343Z,22.0
2022-10-13T13:00:00.337Z,22.0
2022-10-13T13:01:00.391Z,21.9
2022-10-13T13:02:00.286Z,21.9
2022-10-13T13:03:00.562Z,21.9
2022-10-13T13:04:00.670Z,21.8
2022-10-13T13:05:00.299Z,21.8
2022-10-13T13:06:00.798Z,21.8
2022-10-13T13:07:00.318Z,21.8
2022-10-13T13:08:00.643Z,21.9
2022-10-13T13:09:00.437Z,22.0
2022-10-13T13:10:00.514Z,22.1
2022-10-13T13:11:00.741Z,22.2
2022-10-13T13:12:00.409Z,22.2
2022-10-13T13:13:00.406Z,22.3
2022-10-13T13:14:00.338Z,22.3
2022-10-13T13:15:00.456Z,22.4
2022-10-13T13:16:00.728Z,22.4
2022-10-13T13:17:00.356Z,22.4
2022-10-13T13:18:00.570Z,22.3
2022-10-13T13:19:00.653Z,22.2
2022-10-13T13:20:00.283Z,22.1
2022-10-13T13:21:00.428Z,22.1
2022-10-13T13:22:00.433Z,22.1
2022-10-13T13:23:00.333Z,22.1
2022-10-13T13:24:01.573Z,21.9
2022-10-13T13:25:00.323Z,21.8